createdAt,value
2019-03-24T00:00:29.280Z,79.638672
2019-03-24T00:01:41.285Z,79.846191
2019-03-24T00:02:48.368Z,80.053711
2019-03-24T00:03:57.931Z,79.949951
2019-03-24T00:05:07.463Z,79.846191
2019-03-24T00:06:16.991Z,80.157471
2019-03-24T00:07:26.526Z,80.26123
2019-03-24T00:08:36.067Z,80.36499
2019-03-24T00:09:45.600Z,80.46875
2019-03-24T00:10:55.144Z,80.46875
2019-03-24T00:12:04.707Z,80.57251
2019-03-24T00:13:14.276Z,80.505371
2019-03-24T00:14:23.790Z,80.505371
2019-03-24T00:15:33.320Z,80.505371
2019-03-24T00:16:42.857Z,80.81665
2019-03-24T00:17:52.393Z,80.401611
2019-03-24T00:19:01.929Z,80.297852
2019-03-24T00:20:11.466Z,79.882812
2019-03-24T00:21:20.999Z,80.401611
2019-03-24T00:22:30.527Z,80.609131
2019-03-24T00:23:40.064Z,80.712891
2019-03-24T00:24:49.592Z,80.81665
2019-03-24T00:25:59.155Z,80.92041
2019-03-24T00:27:08.665Z,81.02417
2019-03-24T00:28:18.208Z,81.12793
2019-03-24T00:29:27.744Z,81.02417
2019-03-24T00:30:37.267Z,81.12793
2019-03-24T00:31:46.807Z,81.02417
2019-03-24T00:32:56.345Z,80.712891
2019-03-24T00:34:05.911Z,80.023193
2019-03-24T00:35:15.436Z,79.711914
2019-03-24T00:36:25.965Z,80.334473
2019-03-24T00:37:35.499Z,80.334473
2019-03-24T00:38:45.087Z,80.957031
2019-03-24T00:39:54.605Z,81.164551
2019-03-24T00:41:04.138Z,81.268311
2019-03-24T00:42:13.668Z,81.060791
2019-03-24T00:43:23.195Z,81.57959
2019-03-24T00:44:32.750Z,81.37207
2019-03-24T00:45:42.370Z,81.787109
2019-03-24T00:46:52.009Z,82.098389
2019-03-24T00:48:01.678Z,81.787109
2019-03-24T00:49:11.355Z,81.68335
2019-03-24T00:50:20.997Z,81.68335
2019-03-24T00:51:30.663Z,81.37207
2019-03-24T00:52:40.324Z,81.097412
2019-03-24T00:53:49.852Z,81.201172
2019-03-24T00:54:59.411Z,81.201172
2019-03-24T00:56:08.950Z,82.13501
2019-03-24T00:57:18.460Z,81.82373
2019-03-24T00:58:28.992Z,81.719971
2019-03-24T00:59:38.541Z,81.408691
2019-03-24T01:00:48.068Z,81.304932
2019-03-24T01:01:57.610Z,81.304932
2019-03-24T01:03:07.158Z,81.164551
2019-03-24T01:04:16.683Z,81.57959
2019-03-24T01:05:26.222Z,80.749512
2019-03-24T01:06:35.768Z,80.645752
2019-03-24T01:07:45.274Z,80.438232
2019-03-24T01:08:54.812Z,79.614258
2019-03-24T01:10:04.344Z,79.748535
2019-03-24T01:11:13.875Z,80.578613
2019-03-24T01:12:23.403Z,80.786133
2019-03-24T01:13:32.952Z,79.998779
2019-03-24T01:14:42.489Z,79.89502
2019-03-24T01:15:52.048Z,81.072998
2019-03-24T01:17:01.555Z,81.695557
2019-03-24T01:18:11.099Z,82.214355
2019-03-24T01:19:20.628Z,83.251953
2019-03-24T01:20:30.158Z,82.733154
2019-03-24T01:21:39.691Z,82.733154
2019-03-24T01:22:49.239Z,82.489014
2019-03-24T01:23:58.800Z,82.489014
2019-03-24T01:25:08.316Z,81.970215
2019-03-24T01:26:17.846Z,82.281494
2019-03-24T01:27:27.378Z,82.733154
2019-03-24T01:28:36.905Z,83.355713
2019-03-24T01:29:46.445Z,83.666992
2019-03-24T01:30:55.970Z,84.082031
2019-03-24T01:32:05.500Z,83.978271
2019-03-24T01:33:15.037Z,84.185791
2019-03-24T01:34:24.583Z,84.393311
2019-03-24T01:35:34.132Z,84.082031
2019-03-24T01:36:43.670Z,83.911133
2019-03-24T01:37:53.218Z,83.703613
2019-03-24T01:39:02.722Z,83.807373
2019-03-24T01:40:12.266Z,84.118652
2019-03-24T01:41:21.804Z,84.222412
2019-03-24T01:42:31.348Z,84.222412
2019-03-24T01:43:40.867Z,84.222412
2019-03-24T01:44:50.405Z,83.911133
2019-03-24T01:45:59.924Z,84.014893
2019-03-24T01:47:09.452Z,83.807373
2019-03-24T01:48:18.979Z,84.222412
2019-03-24T01:49:28.515Z,84.637451
2019-03-24T01:50:38.048Z,84.741211
2019-03-24T01:51:47.593Z,84.533691
2019-03-24T01:52:57.117Z,84.637451
2019-03-24T01:54:06.662Z,84.576416
2019-03-24T01:55:16.201Z,84.887695
2019-03-24T01:56:26.740Z,84.051514
2019-03-24T01:57:36.253Z,84.680176
2019-03-24T01:58:45.792Z,85.614014
2019-03-24T01:59:55.343Z,84.741211
2019-03-24T02:01:04.864Z,83.911133
2019-03-24T02:02:14.429Z,84.429932
2019-03-24T02:03:24.084Z,84.082031
2019-03-24T02:04:33.737Z,82.873535
2019-03-24T02:05:44.330Z,82.147217
2019-03-24T02:06:53.850Z,82.666016
2019-03-24T02:08:03.390Z,83.392334
2019-03-24T02:09:12.926Z,83.392334
2019-03-24T02:10:22.629Z,82.977295
2019-03-24T02:11:32.186Z,83.599854
2019-03-24T02:12:41.725Z,83.703613
2019-03-24T02:13:52.254Z,84.429932
2019-03-24T02:15:01.796Z,84.185791
2019-03-24T02:16:11.336Z,83.148193
2019-03-24T02:17:20.853Z,82.629395
2019-03-24T02:18:30.388Z,83.044434
2019-03-24T02:19:39.941Z,82.421875
2019-03-24T02:20:49.473Z,81.591797
2019-03-24T02:21:59.019Z,81.280518
2019-03-24T02:23:08.545Z,81.317139
2019-03-24T02:24:18.083Z,83.184814
2019-03-24T02:25:27.628Z,84.014893
2019-03-24T02:26:37.152Z,84.014893
2019-03-24T02:27:46.679Z,84.118652
2019-03-24T02:28:56.216Z,84.265137
2019-03-24T02:30:05.767Z,84.368896
2019-03-24T02:31:15.333Z,84.368896
2019-03-24T02:32:24.865Z,84.472656
2019-03-24T02:33:34.405Z,84.368896
2019-03-24T02:34:43.961Z,83.947754
2019-03-24T02:35:53.498Z,84.155273
2019-03-24T02:37:03.032Z,84.680176
2019-03-24T02:38:12.547Z,84.613037
2019-03-24T02:39:22.079Z,84.820557
2019-03-24T02:40:31.629Z,84.924316
2019-03-24T02:41:41.191Z,85.131836
2019-03-24T02:42:51.723Z,84.716797
2019-03-24T02:44:01.273Z,84.924316
2019-03-24T02:45:11.816Z,85.168457
2019-03-24T02:46:24.425Z,85.339355
2019-03-24T02:47:30.864Z,85.546875
2019-03-24T02:48:40.398Z,85.339355
2019-03-24T02:49:49.938Z,85.028076
2019-03-24T02:50:59.507Z,85.131836
2019-03-24T02:52:09.028Z,84.301758
2019-03-24T02:53:19.570Z,83.26416
2019-03-24T02:54:29.100Z,82.427979
2019-03-24T02:55:38.644Z,82.049561
2019-03-24T02:56:48.194Z,83.129883
2019-03-24T02:57:57.721Z,84.692383
2019-03-24T02:59:07.245Z,85.040283
2019-03-24T03:00:16.782Z,85.455322
2019-03-24T03:01:27.310Z,85.040283
2019-03-24T03:02:36.859Z,85.668945
2019-03-24T03:03:47.376Z,85.394287
2019-03-24T03:04:56.900Z,85.498047
2019-03-24T03:06:06.434Z,85.705566
2019-03-24T03:07:15.971Z,86.224365
2019-03-24T03:08:25.515Z,87.268066
2019-03-24T03:09:35.050Z,88.830566
2019-03-24T03:10:44.575Z,88.165283
2019-03-24T03:11:54.127Z,87.854004
2019-03-24T03:13:03.666Z,87.70752
2019-03-24T03:14:13.176Z,87.70752
2019-03-24T03:15:23.732Z,87.70752
2019-03-24T03:16:38.555Z,87.811279
2019-03-24T03:17:43.771Z,87.188721
2019-03-24T03:18:53.299Z,86.566162
2019-03-24T03:20:02.852Z,85.772705
2019-03-24T03:21:12.362Z,86.914062
2019-03-24T03:22:21.893Z,86.187744
2019-03-24T03:23:31.439Z,86.602783
2019-03-24T03:24:40.970Z,87.957764
2019-03-24T03:25:50.485Z,88.330078
2019-03-24T03:27:00.096Z,88.122559
2019-03-24T03:28:09.649Z,87.811279
2019-03-24T03:29:19.172Z,87.39624
2019-03-24T03:30:28.733Z,86.566162
2019-03-24T03:31:38.275Z,85.83374
2019-03-24T03:32:47.802Z,86.14502
2019-03-24T03:33:57.354Z,87.188721
2019-03-24T03:35:06.873Z,87.188721
2019-03-24T03:36:16.418Z,86.981201
2019-03-24T03:37:25.973Z,86.981201
2019-03-24T03:38:35.515Z,86.981201
2019-03-24T03:39:45.031Z,86.877441
2019-03-24T03:40:54.628Z,86.669922
2019-03-24T03:42:04.136Z,86.669922
2019-03-24T03:43:13.679Z,86.669922
2019-03-24T03:44:23.183Z,86.877441
2019-03-24T03:45:32.720Z,86.773682
2019-03-24T03:46:52.181Z,86.456299
2019-03-24T03:47:53.765Z,86.456299
2019-03-24T03:49:03.288Z,86.456299
2019-03-24T03:50:12.814Z,86.456299
2019-03-24T03:51:22.366Z,86.456299
2019-03-24T03:52:31.907Z,86.456299
2019-03-24T03:53:41.437Z,86.248779
2019-03-24T03:54:50.974Z,86.352539
2019-03-24T03:56:00.526Z,86.352539
2019-03-24T03:57:10.056Z,86.456299
2019-03-24T03:58:19.588Z,86.04126
2019-03-24T03:59:29.124Z,86.04126
2019-03-24T04:00:38.649Z,86.395264
2019-03-24T04:01:48.191Z,86.395264
2019-03-24T04:02:57.726Z,86.810303
2019-03-24T04:04:07.255Z,86.877441
2019-03-24T04:05:16.791Z,86.566162
2019-03-24T04:06:26.422Z,86.004639
2019-03-24T04:07:35.964Z,85.5896
2019-03-24T04:08:45.495Z,85.131836
2019-03-24T04:09:56.030Z,84.716797
2019-03-24T04:11:05.568Z,84.405518
2019-03-24T04:12:15.102Z,84.051514
2019-03-24T04:13:24.654Z,83.740234
2019-03-24T04:14:34.198Z,83.428955
2019-03-24T04:15:43.713Z,83.325195
2019-03-24T04:17:06.001Z,83.117676
2019-03-24T04:18:03.763Z,83.221436
2019-03-24T04:19:13.316Z,83.221436
2019-03-24T04:20:22.862Z,83.532715
2019-03-24T04:21:32.419Z,83.428955
2019-03-24T04:22:41.943Z,83.782959
2019-03-24T04:23:51.483Z,83.636475
2019-03-24T04:25:01.047Z,83.532715
2019-03-24T04:26:10.569Z,83.782959
2019-03-24T04:27:20.134Z,83.575439
2019-03-24T04:28:29.639Z,83.782959
2019-03-24T04:29:39.167Z,84.094238
2019-03-24T04:30:48.695Z,84.301758
2019-03-24T04:31:58.259Z,84.613037
2019-03-24T04:33:07.795Z,84.716797
2019-03-24T04:34:17.331Z,84.820557
2019-03-24T04:35:26.877Z,84.716797
2019-03-24T04:36:36.427Z,84.613037
2019-03-24T04:37:45.974Z,84.613037
2019-03-24T04:38:55.514Z,84.509277
2019-03-24T04:40:05.064Z,84.405518
2019-03-24T04:41:14.575Z,84.716797
2019-03-24T04:42:24.122Z,84.820557
2019-03-24T04:43:34.645Z,84.960938
2019-03-24T04:44:44.179Z,84.857178
2019-03-24T04:45:53.786Z,84.960938
2019-03-24T04:47:03.368Z,84.960938
2019-03-24T04:48:13.886Z,84.960938
2019-03-24T04:49:23.421Z,84.857178
2019-03-24T04:50:32.964Z,84.857178
2019-03-24T04:51:42.529Z,84.716797
2019-03-24T04:52:52.073Z,84.649658
2019-03-24T04:54:01.600Z,84.716797
2019-03-24T04:55:11.131Z,84.716797
2019-03-24T04:56:20.664Z,84.613037
2019-03-24T04:57:30.244Z,84.509277
2019-03-24T04:58:39.779Z,84.649658
2019-03-24T04:59:49.346Z,84.649658
2019-03-24T05:00:58.848Z,84.857178
2019-03-24T05:02:08.407Z,84.857178
2019-03-24T05:03:17.924Z,84.649658
2019-03-24T05:04:28.437Z,84.960938
2019-03-24T05:05:37.974Z,85.522461
2019-03-24T05:06:47.509Z,85.626221
2019-03-24T05:07:57.062Z,85.9375
2019-03-24T05:09:06.589Z,85.9375
2019-03-24T05:10:16.140Z,86.248779
2019-03-24T05:11:25.675Z,86.248779
2019-03-24T05:12:35.237Z,86.291504
2019-03-24T05:13:44.770Z,86.395264
2019-03-24T05:14:54.294Z,86.914062
2019-03-24T05:16:03.821Z,87.329102
2019-03-24T05:17:13.382Z,87.536621
2019-03-24T05:18:23.898Z,87.750244
2019-03-24T05:19:33.441Z,87.750244
2019-03-24T05:20:42.974Z,87.890625
2019-03-24T05:21:52.499Z,87.994385
2019-03-24T05:23:02.075Z,87.890625
2019-03-24T05:24:11.600Z,88.098145
2019-03-24T05:25:21.119Z,88.311768
2019-03-24T05:26:30.665Z,88.415527
2019-03-24T05:27:40.214Z,88.269043
2019-03-24T05:28:49.731Z,87.957764
2019-03-24T05:29:59.288Z,87.854004
2019-03-24T05:31:09.814Z,87.646484
2019-03-24T05:32:19.354Z,87.646484
2019-03-24T05:33:28.900Z,87.536621
2019-03-24T05:34:38.446Z,87.432861
2019-03-24T05:35:47.971Z,87.329102
2019-03-24T05:36:57.508Z,87.225342
2019-03-24T05:38:07.042Z,87.329102
2019-03-24T05:39:16.573Z,87.329102
2019-03-24T05:40:26.118Z,87.432861
2019-03-24T05:41:35.637Z,87.329102
2019-03-24T05:42:45.182Z,87.432861
2019-03-24T05:43:54.729Z,87.225342
2019-03-24T05:45:04.246Z,87.225342
2019-03-24T05:46:13.783Z,87.121582
2019-03-24T05:47:23.301Z,87.225342
2019-03-24T05:48:33.852Z,86.981201
2019-03-24T05:49:43.410Z,86.669922
2019-03-24T05:50:52.918Z,86.456299
2019-03-24T05:52:02.450Z,86.108398
2019-03-24T05:53:12.017Z,85.797119
2019-03-24T05:54:22.543Z,85.797119
2019-03-24T05:55:32.076Z,85.693359
2019-03-24T05:56:41.658Z,85.48584
2019-03-24T05:57:51.273Z,85.235596
2019-03-24T05:59:00.801Z,85.028076
2019-03-24T06:00:10.343Z,84.820557
2019-03-24T06:01:19.882Z,84.613037
2019-03-24T06:02:29.423Z,84.405518
2019-03-24T06:03:38.965Z,84.155273
2019-03-24T06:04:48.529Z,83.843994
2019-03-24T06:05:58.065Z,83.636475
2019-03-24T06:07:07.584Z,83.288574
2019-03-24T06:08:17.201Z,82.873535
2019-03-24T06:09:26.718Z,82.562256
2019-03-24T06:10:36.258Z,82.458496
2019-03-24T06:11:45.789Z,82.214355
2019-03-24T06:12:55.325Z,82.006836
2019-03-24T06:14:05.899Z,81.799316
2019-03-24T06:15:15.431Z,81.591797
2019-03-24T06:16:24.957Z,81.243896
2019-03-24T06:17:34.496Z,80.932617
2019-03-24T06:18:45.026Z,80.725098
2019-03-24T06:19:54.969Z,80.621338
2019-03-24T06:21:04.355Z,80.517578
2019-03-24T06:22:13.927Z,80.828857
2019-03-24T06:23:23.487Z,80.993652
2019-03-24T06:24:33.014Z,80.578613
2019-03-24T06:25:42.551Z,80.474854
2019-03-24T06:26:52.084Z,80.267334
2019-03-24T06:28:01.618Z,80.059814
2019-03-24T06:29:11.159Z,79.302979
2019-03-24T06:30:20.699Z,79.095459
2019-03-24T06:31:30.300Z,78.643799
2019-03-24T06:32:39.974Z,78.22876
2019-03-24T06:33:49.630Z,77.984619
2019-03-24T06:34:59.274Z,77.46582
2019-03-24T06:36:08.932Z,77.325439
2019-03-24T06:37:18.524Z,77.11792
2019-03-24T06:38:28.131Z,76.190186
2019-03-24T06:39:37.674Z,75.842285
2019-03-24T06:40:47.191Z,75.323486
2019-03-24T06:41:56.730Z,75.189209
2019-03-24T06:43:06.268Z,74.87793
2019-03-24T06:44:15.820Z,74.633789
2019-03-24T06:45:28.569Z,74.432373
2019-03-24T06:46:34.856Z,73.602295
2019-03-24T06:47:44.369Z,72.741699
2019-03-24T06:48:54.925Z,72.399902
2019-03-24T06:50:04.432Z,71.984863
2019-03-24T06:51:13.947Z,71.539307
2019-03-24T06:52:23.485Z,71.020508
2019-03-24T06:53:33.026Z,71.09375
2019-03-24T06:54:42.578Z,69.927979
2019-03-24T06:55:52.115Z,69.378662
2019-03-24T06:57:01.647Z,68.347168
2019-03-24T06:58:11.174Z,68.31665
2019-03-24T06:59:20.723Z,68.182373
2019-03-24T07:00:30.244Z,67.150879
2019-03-24T07:01:39.788Z,67.120361
2019-03-24T07:02:49.328Z,66.088867
2019-03-24T07:03:58.879Z,65.95459
2019-03-24T07:05:08.403Z,65.130615
2019-03-24T07:06:17.936Z,65.234375
2019-03-24T07:07:28.482Z,65.106201
2019-03-24T07:08:38.003Z,64.764404
2019-03-24T07:09:47.571Z,63.220215
2019-03-24T07:10:57.089Z,63.397217
2019-03-24T07:12:06.644Z,63.195801
2019-03-24T07:13:16.174Z,63.061523
2019-03-24T07:14:25.719Z,61.901855
2019-03-24T07:15:35.250Z,61.700439
2019-03-24T07:16:44.790Z,61.669922
2019-03-24T07:17:54.332Z,60.821533
2019-03-24T07:19:05.008Z,59.893799
2019-03-24T07:20:14.683Z,59.484863
2019-03-24T07:21:24.245Z,59.179688
2019-03-24T07:22:33.750Z,59.179688
2019-03-24T07:23:43.351Z,59.558105
2019-03-24T07:24:52.988Z,59.25293
2019-03-24T07:26:02.615Z,59.356689
2019-03-24T07:27:12.259Z,59.460449
2019-03-24T07:28:21.918Z,59.356689
2019-03-24T07:29:31.564Z,59.14917
2019-03-24T07:30:41.225Z,59.558105
2019-03-24T07:31:50.813Z,58.996582
2019-03-24T07:33:00.352Z,58.117676
2019-03-24T07:34:09.881Z,56.866455
2019-03-24T07:35:19.422Z,55.712891
2019-03-24T07:36:28.951Z,55.383301
2019-03-24T07:37:38.491Z,54.870605
2019-03-24T07:38:48.020Z,54.638672
2019-03-24T07:39:57.552Z,54.229736
2019-03-24T07:41:07.077Z,54.333496
2019-03-24T07:42:16.597Z,54.333496
2019-03-24T07:43:26.144Z,54.02832
2019-03-24T07:44:35.663Z,53.900146
2019-03-24T07:45:45.201Z,53.796387
2019-03-24T07:46:54.737Z,53.491211
2019-03-24T07:48:04.274Z,53.570557
2019-03-24T07:49:14.797Z,52.929688
2019-03-24T07:50:24.364Z,51.660156
2019-03-24T07:51:33.909Z,51.434326
2019-03-24T07:52:43.438Z,50.20752
2019-03-24T07:53:52.965Z,49.804688
2019-03-24T07:55:02.536Z,50.006104
2019-03-24T07:56:12.073Z,50.311279
2019-03-24T07:57:21.610Z,50.231934
2019-03-24T07:58:31.135Z,50.793457
2019-03-24T07:59:40.699Z,51.428223
2019-03-24T08:00:50.217Z,52.038574
2019-03-24T08:01:59.800Z,51.708984
2019-03-24T08:03:09.384Z,51.171875
2019-03-24T08:04:18.918Z,50.311279
2019-03-24T08:05:28.450Z,48.840332
2019-03-24T08:06:37.975Z,48.840332
2019-03-24T08:07:47.512Z,48.33374
2019-03-24T08:08:57.044Z,48.718262
2019-03-24T08:10:06.600Z,47.88208
2019-03-24T08:11:16.128Z,47.44873
2019-03-24T08:12:25.682Z,46.411133
2019-03-24T08:13:35.212Z,46.087646
2019-03-24T08:14:44.758Z,45.6604
2019-03-24T08:15:54.383Z,44.647217
2019-03-24T08:17:03.950Z,45.477295
2019-03-24T08:18:13.484Z,45.330811
2019-03-24T08:19:23.009Z,44.824219
2019-03-24T08:20:32.578Z,44.500732
2019-03-24T08:21:42.092Z,44.421387
2019-03-24T08:22:51.631Z,44.604492
2019-03-24T08:24:01.157Z,43.811035
2019-03-24T08:25:10.701Z,45.050049
2019-03-24T08:26:20.224Z,45.153809
2019-03-24T08:27:29.782Z,44.482422
2019-03-24T08:28:39.358Z,43.64624
2019-03-24T08:29:49.826Z,42.919922
2019-03-24T08:30:59.379Z,42.657471
2019-03-24T08:32:08.918Z,44.0979
2019-03-24T08:33:18.444Z,43.469238
2019-03-24T08:34:27.991Z,43.97583
2019-03-24T08:35:37.530Z,43.548584
2019-03-24T08:36:47.070Z,42.901611
2019-03-24T08:37:56.598Z,41.564941
2019-03-24T08:39:06.115Z,42.089844
2019-03-24T08:40:15.784Z,41.967773
2019-03-24T08:41:25.346Z,41.259766
2019-03-24T08:42:34.895Z,41.05835
2019-03-24T08:43:44.424Z,41.05835
2019-03-24T08:44:53.962Z,41.485596
2019-03-24T08:46:03.520Z,41.461182
2019-03-24T08:47:13.057Z,41.162109
2019-03-24T08:48:22.577Z,41.259766
2019-03-24T08:49:32.111Z,42.193604
2019-03-24T08:50:41.665Z,42.211914
2019-03-24T08:51:51.328Z,42.071533
2019-03-24T08:53:00.713Z,41.748047
2019-03-24T08:54:10.250Z,40.777588
2019-03-24T08:55:19.788Z,40.05127
2019-03-24T08:56:29.341Z,40.234375
2019-03-24T08:57:38.937Z,39.007568
2019-03-24T08:58:48.611Z,38.183594
2019-03-24T08:59:58.255Z,38.708496
2019-03-24T09:01:08.826Z,39.111328
2019-03-24T09:02:18.379Z,39.007568
2019-03-24T09:03:27.906Z,38.806152
2019-03-24T09:04:37.427Z,38.183594
2019-03-24T09:05:46.981Z,39.208984
2019-03-24T09:06:56.577Z,38.671875
2019-03-24T09:08:06.070Z,38.146973
2019-03-24T09:09:15.606Z,36.755371
2019-03-24T09:10:25.130Z,37.176514
2019-03-24T09:11:34.669Z,38.098145
2019-03-24T09:12:44.203Z,38.28125
2019-03-24T09:13:53.759Z,37.445068
2019-03-24T09:15:03.295Z,37.139893
2019-03-24T09:16:13.893Z,37.542725
2019-03-24T09:17:23.495Z,36.938477
2019-03-24T09:18:33.042Z,36.938477
2019-03-24T09:19:42.629Z,36.791992
2019-03-24T09:20:52.155Z,37.39624
2019-03-24T09:22:01.884Z,37.677002
2019-03-24T09:23:11.447Z,37.158203
2019-03-24T09:24:20.973Z,37.341309
2019-03-24T09:25:30.614Z,36.419678
2019-03-24T09:26:40.129Z,36.437988
2019-03-24T09:27:49.641Z,36.315918
2019-03-24T09:28:59.719Z,36.920166
2019-03-24T09:30:08.717Z,36.499023
2019-03-24T09:31:18.289Z,36.804199
2019-03-24T09:32:27.839Z,36.102295
2019-03-24T09:33:37.393Z,37.426758
2019-03-24T09:34:46.928Z,36.419678
2019-03-24T09:35:56.444Z,37.304688
2019-03-24T09:37:06.018Z,36.486816
2019-03-24T09:38:15.539Z,35.845947
2019-03-24T09:39:25.107Z,35.144043
2019-03-24T09:40:34.620Z,35.26001
2019-03-24T09:41:44.159Z,36.16333
2019-03-24T09:42:53.689Z,34.759521
2019-03-24T09:44:03.220Z,35.968018
2019-03-24T09:45:12.860Z,36.431885
2019-03-24T09:46:22.417Z,35.394287
2019-03-24T09:47:31.955Z,34.710693
2019-03-24T09:48:41.498Z,34.710693
2019-03-24T09:49:51.044Z,35.028076
2019-03-24T09:51:00.602Z,34.924316
2019-03-24T09:52:10.159Z,35.247803
2019-03-24T09:53:19.728Z,35.546875
2019-03-24T09:54:29.327Z,35.327148
2019-03-24T09:55:38.866Z,34.222412
2019-03-24T09:56:48.386Z,35.125732
2019-03-24T09:57:57.980Z,35.528564
2019-03-24T09:59:07.529Z,35.125732
2019-03-24T10:00:17.056Z,35.913086
2019-03-24T10:01:27.384Z,34.80835
2019-03-24T10:02:37.001Z,35.125732
2019-03-24T10:03:46.794Z,35.931396
2019-03-24T10:04:56.356Z,35.314941
2019-03-24T10:06:06.956Z,34.411621
2019-03-24T10:07:16.570Z,35.211182
2019-03-24T10:08:26.140Z,36.199951
2019-03-24T10:09:35.721Z,33.874512
2019-03-24T10:10:45.253Z,33.892822
2019-03-24T10:11:54.791Z,34.277344
2019-03-24T10:13:04.351Z,34.576416
2019-03-24T10:14:13.869Z,34.075928
2019-03-24T10:15:23.398Z,33.709717
2019-03-24T10:16:32.944Z,34.509277
2019-03-24T10:17:42.497Z,34.509277
2019-03-24T10:18:52.041Z,33.789062
2019-03-24T10:20:01.577Z,34.277344
2019-03-24T10:21:11.144Z,33.508301
2019-03-24T10:22:20.685Z,34.625244
2019-03-24T10:23:30.214Z,34.191895
2019-03-24T10:24:39.807Z,33.905029
2019-03-24T10:25:50.331Z,34.924316
2019-03-24T10:26:59.887Z,34.606934
2019-03-24T10:28:09.427Z,34.094238
2019-03-24T10:29:19.016Z,34.362793
2019-03-24T10:30:28.511Z,33.14209
2019-03-24T10:31:38.044Z,32.928467
2019-03-24T10:32:47.713Z,31.92749
2019-03-24T10:33:57.192Z,32.141113
2019-03-24T10:35:06.751Z,32.556152
2019-03-24T10:36:16.340Z,33.892822
2019-03-24T10:37:25.920Z,33.776855
2019-03-24T10:38:35.463Z,33.239746
2019-03-24T10:39:45.028Z,32.025146
2019-03-24T10:40:54.613Z,32.342529
2019-03-24T10:42:04.176Z,32.958984
2019-03-24T10:43:13.737Z,32.543945
2019-03-24T10:44:23.290Z,32.940674
2019-03-24T10:45:32.838Z,31.92749
2019-03-24T10:46:42.373Z,32.122803
2019-03-24T10:47:51.940Z,32.025146
2019-03-24T10:49:02.482Z,32.025146
2019-03-24T10:50:14.293Z,31.726074
2019-03-24T10:51:21.552Z,31.555176
2019-03-24T10:52:31.102Z,31.652832
2019-03-24T10:53:40.669Z,31.37207
2019-03-24T10:54:50.241Z,31.872559
2019-03-24T10:55:59.762Z,31.35376
2019-03-24T10:57:09.395Z,30.950928
2019-03-24T10:58:18.926Z,31.45752
2019-03-24T10:59:28.479Z,30.926514
2019-03-24T11:00:38.066Z,31.640625
2019-03-24T11:01:47.664Z,31.427002
2019-03-24T11:02:57.232Z,31.707764
2019-03-24T11:04:06.836Z,29.595947
2019-03-24T11:05:16.433Z,29.711914
2019-03-24T11:06:25.975Z,29.80957
2019-03-24T11:07:35.568Z,31.011963
2019-03-24T11:08:45.141Z,30.69458
2019-03-24T11:09:54.740Z,30.395508
2019-03-24T11:11:04.248Z,30.407715
2019-03-24T11:12:13.791Z,30.725098
2019-03-24T11:13:23.423Z,30.621338
2019-03-24T11:14:33.034Z,30.010986
2019-03-24T11:15:42.613Z,30.706787
2019-03-24T11:16:52.160Z,29.89502
2019-03-24T11:18:01.705Z,29.180908
2019-03-24T11:19:11.251Z,29.779053
2019-03-24T11:20:20.798Z,29.382324
2019-03-24T11:21:30.357Z,28.979492
2019-03-24T11:22:39.923Z,29.083252
2019-03-24T11:23:49.490Z,27.996826
2019-03-24T11:24:59.117Z,28.692627
2019-03-24T11:26:08.692Z,28.796387
2019-03-24T11:27:18.272Z,28.582764
2019-03-24T11:28:27.824Z,28.479004
2019-03-24T11:29:37.391Z,28.582764
2019-03-24T11:30:46.965Z,27.783203
2019-03-24T11:31:56.510Z,28.381348
2019-03-24T11:33:06.130Z,28.283691
2019-03-24T11:34:15.732Z,28.393555
2019-03-24T11:35:25.335Z,29.47998
2019-03-24T11:36:34.955Z,28.881836
2019-03-24T11:37:44.546Z,28.668213
2019-03-24T11:38:54.162Z,28.656006
2019-03-24T11:40:03.733Z,28.338623
2019-03-24T11:41:13.301Z,27.355957
2019-03-24T11:42:23.925Z,27.56958
2019-03-24T11:43:33.504Z,29.052734
2019-03-24T11:44:43.084Z,28.240967
2019-03-24T11:45:52.724Z,28.155518
2019-03-24T11:47:02.311Z,28.253174
2019-03-24T11:48:11.923Z,28.552246
2019-03-24T11:49:21.495Z,28.051758
2019-03-24T11:50:31.116Z,29.052734
2019-03-24T11:51:40.745Z,27.740479
2019-03-24T11:52:50.334Z,27.844238
2019-03-24T11:53:59.888Z,28.125
2019-03-24T11:55:09.486Z,27.502441
2019-03-24T11:56:19.077Z,26.989746
2019-03-24T11:57:28.722Z,26.593018
2019-03-24T11:58:38.371Z,26.092529
2019-03-24T11:59:47.973Z,26.928711
2019-03-24T12:00:57.589Z,27.716064
2019-03-24T12:02:07.150Z,27.587891
2019-03-24T12:03:16.659Z,26.989746
2019-03-24T12:04:26.234Z,28.00293
2019-03-24T12:05:35.772Z,27.093506
2019-03-24T12:06:45.328Z,28.198242
2019-03-24T12:07:54.999Z,27.429199
2019-03-24T12:09:04.655Z,26.904297
2019-03-24T12:10:14.174Z,26.818848
2019-03-24T12:11:23.981Z,26.507568
2019-03-24T12:12:33.664Z,26.89209
2019-03-24T12:13:43.201Z,26.379395
2019-03-24T12:14:52.753Z,25.982666
2019-03-24T12:16:02.279Z,25.88501
2019-03-24T12:17:12.870Z,26.806641
2019-03-24T12:18:22.607Z,26.391602
2019-03-24T12:19:32.175Z,26.269531
2019-03-24T12:20:41.869Z,25.958252
2019-03-24T12:21:51.440Z,25.427246
2019-03-24T12:23:01.037Z,25.427246
2019-03-24T12:24:10.610Z,25.140381
2019-03-24T12:25:20.190Z,25.024414
2019-03-24T12:26:29.711Z,25.622559
2019-03-24T12:27:39.263Z,25.427246
2019-03-24T12:28:48.853Z,26.470947
2019-03-24T12:29:58.435Z,27.288818
2019-03-24T12:31:08.097Z,27.062988
2019-03-24T12:32:17.848Z,26.452637
2019-03-24T12:33:27.395Z,26.330566
2019-03-24T12:34:36.960Z,25.720215
2019-03-24T12:35:46.621Z,25.512695
2019-03-24T12:36:56.177Z,24.829102
2019-03-24T12:38:05.712Z,25.427246
2019-03-24T12:39:15.254Z,24.719238
2019-03-24T12:40:24.819Z,24.707031
2019-03-24T12:41:34.403Z,24.188232
2019-03-24T12:42:43.924Z,24.395752
2019-03-24T12:43:53.575Z,25.463867
2019-03-24T12:45:03.163Z,26.452637
2019-03-24T12:46:12.731Z,26.245117
2019-03-24T12:47:22.359Z,26.147461
2019-03-24T12:48:31.902Z,25.415039
2019-03-24T12:49:41.448Z,25.708008
2019-03-24T12:50:50.974Z,24.719238
2019-03-24T12:52:00.508Z,24.200439
2019-03-24T12:53:10.122Z,24.01123
2019-03-24T12:54:19.686Z,24.993896
2019-03-24T12:55:30.417Z,25.079346
2019-03-24T12:56:40.016Z,24.890137
2019-03-24T12:57:49.577Z,25.610352
2019-03-24T12:58:59.161Z,25
2019-03-24T13:00:08.758Z,24.804688
2019-03-24T13:01:18.279Z,25
2019-03-24T13:02:27.853Z,24.981689
2019-03-24T13:03:37.407Z,24.981689
2019-03-24T13:04:46.953Z,25.201416
2019-03-24T13:05:56.487Z,25.585938
2019-03-24T13:07:06.039Z,25.537109
2019-03-24T13:08:15.595Z,24.505615
2019-03-24T13:09:25.174Z,24.084473
2019-03-24T13:10:34.792Z,24.468994
2019-03-24T13:11:44.341Z,23.876953
2019-03-24T13:12:53.886Z,23.681641
2019-03-24T13:14:03.442Z,24.261475
2019-03-24T13:15:13.024Z,23.779297
2019-03-24T13:16:22.580Z,23.986816
2019-03-24T13:17:32.104Z,24.395752
